Time;durP1;ratioP1;P1;durP2;ratioP2;P2;SDS_P1;SDS_P2;PMS_P1;PMS_P2;Temp;Humidity;BMP_temperature;BMP_pressure;BME280_temperature;BME280_humidity;BME280_pressure;Samples;Min_cycle;Max_cycle;Signal;HPM_P1;HPM_P2
2023/02/08 00:00:20;;;;;;;48.50;23.52;;;;;;;3.98;51.51;103908.13;5025425;27;97135;-69
2023/02/08 00:02:48;;;;;;;52.47;23.67;;;;;;;3.90;51.55;103906.00;5022744;27;96989;-68
2023/02/08 00:05:15;;;;;;;51.33;23.35;;;;;;;3.79;51.58;103907.28;5026463;27;98093;-69
2023/02/08 00:07:42;;;;;;;45.47;22.50;;;;;;;3.85;51.15;103905.84;5025329;27;99251;-68
2023/02/08 00:10:09;;;;;;;50.35;23.20;;;;;;;3.80;51.70;103896.91;5027786;28;97540;-68
2023/02/08 00:12:36;;;;;;;50.28;23.52;;;;;;;4.05;50.96;103906.66;5020928;28;97608;-67
2023/02/08 00:15:03;;;;;;;49.22;23.70;;;;;;;4.24;50.86;103896.13;5026931;28;100804;-70
2023/02/08 00:17:29;;;;;;;50.88;24.02;;;;;;;4.03;51.40;103903.06;5031305;27;97718;-67
2023/02/08 00:19:57;;;;;;;51.08;24.55;;;;;;;4.04;50.91;103898.75;5029863;27;96794;-69
2023/02/08 00:22:23;;;;;;;59.63;25.27;;;;;;;3.81;51.21;103903.91;5036891;27;97069;-67
2023/02/08 00:24:50;;;;;;;66.43;24.70;;;;;;;3.84;51.37;103897.91;5024442;28;97845;-68
2023/02/08 00:27:17;;;;;;;50.50;25.17;;;;;;;3.53;52.37;103904.47;5030293;27;99076;-67
2023/02/08 00:29:44;;;;;;;51.75;25.33;;;;;;;3.59;52.29;103894.25;5021577;27;97254;-68
2023/02/08 00:32:10;;;;;;;53.03;24.40;;;;;;;3.44;52.72;103904.03;5028809;27;97543;-68
2023/02/08 00:34:37;;;;;;;52.75;24.23;;;;;;;3.48;53.50;103908.56;5027557;28;98928;-68
2023/02/08 00:37:05;;;;;;;51.40;23.38;;;;;;;3.41;54.01;103903.94;5036546;27;98820;-67
2023/02/08 00:39:32;;;;;;;53.25;25.92;;;;;;;3.43;53.79;103904.88;5030641;27;96804;-67
2023/02/08 00:41:58;;;;;;;52.08;25.13;;;;;;;3.10;54.44;103899.03;5026963;27;98518;-67
2023/02/08 00:44:25;;;;;;;55.13;24.42;;;;;;;3.25;54.38;103896.22;5026536;27;101049;-68
2023/02/08 00:46:52;;;;;;;57.65;25.05;;;;;;;3.32;54.50;103894.78;5023307;27;99300;-68
2023/02/08 00:49:19;;;;;;;54.00;24.50;;;;;;;3.08;53.94;103889.34;5022747;27;97250;-68
2023/02/08 00:51:46;;;;;;;57.85;25.13;;;;;;;3.17;53.95;103894.97;5021357;27;96847;-67
2023/02/08 00:54:15;;;;;;;62.13;26.35;;;;;;;3.15;53.93;103897.50;5033297;27;99056;-67
2023/02/08 00:56:42;;;;;;;58.33;26.23;;;;;;;3.17;54.26;103897.59;5023994;27;98807;-66
2023/02/08 00:59:09;;;;;;;60.00;26.95;;;;;;;3.19;54.20;103901.19;5023350;27;97009;-66
2023/02/08 01:01:36;;;;;;;52.85;25.02;;;;;;;3.16;54.33;103899.31;5028464;27;97551;-68
2023/02/08 01:04:02;;;;;;;57.15;25.27;;;;;;;3.13;54.52;103903.53;5032639;27;99341;-67
2023/02/08 01:06:29;;;;;;;54.80;25.85;;;;;;;3.07;54.88;103901.53;5024525;27;98869;-67
2023/02/08 01:08:55;;;;;;;59.92;27.63;;;;;;;3.07;55.25;103895.41;5021019;27;97336;-68
2023/02/08 01:11:25;;;;;;;52.15;25.70;;;;;;;3.01;54.93;103896.03;5025860;28;96894;-68
2023/02/08 01:13:53;;;;;;;60.55;27.95;;;;;;;3.05;54.73;103904.88;5015452;28;99060;-67
2023/02/08 01:16:21;;;;;;;58.83;26.92;;;;;;;2.99;54.46;103899.38;5023930;28;97829;-68
2023/02/08 01:18:50;;;;;;;56.25;26.80;;;;;;;3.08;54.47;103905.03;5020990;27;97068;-68
2023/02/08 01:21:19;;;;;;;57.65;27.50;;;;;;;2.86;54.60;103897.03;5025547;28;97273;-70
2023/02/08 01:23:47;;;;;;;59.80;28.55;;;;;;;2.99;54.52;103905.50;5026422;28;101074;-68
2023/02/08 01:26:15;;;;;;;57.17;27.67;;;;;;;3.06;53.75;103904.97;5020953;28;99221;-68
2023/02/08 01:28:43;;;;;;;63.13;28.52;;;;;;;2.98;54.09;103902.81;5027714;27;98785;-67
2023/02/08 01:31:12;;;;;;;61.97;29.35;;;;;;;2.80;54.05;103900.25;5028861;27;97386;-68
2023/02/08 01:33:38;;;;;;;66.13;28.77;;;;;;;3.19;53.47;103893.34;5024728;27;99011;-67
2023/02/08 01:36:06;;;;;;;62.00;29.60;;;;;;;3.19;53.75;103890.72;5024636;27;98882;-68
2023/02/08 01:38:33;;;;;;;66.75;29.42;;;;;;;3.41;52.90;103897.81;5023744;27;96890;-68
2023/02/08 01:41:00;;;;;;;60.53;28.33;;;;;;;3.38;52.77;103895.94;5024701;27;96853;-67
2023/02/08 01:43:32;;;;;;;66.57;29.88;;;;;;;3.22;53.35;103896.97;5009567;27;99807;-67
2023/02/08 01:46:01;;;;;;;62.97;29.58;;;;;;;3.16;53.71;103894.09;5022792;27;99646;-67
2023/02/08 01:48:31;;;;;;;65.60;29.83;;;;;;;3.23;53.77;103890.03;5032621;27;96834;-68
2023/02/08 01:51:05;;;;;;;60.38;30.30;;;;;;;3.15;53.62;103886.19;5025503;27;96816;-67
2023/02/08 01:53:34;;;;;;;67.85;30.85;;;;;;;3.16;53.41;103893.19;5029294;27;97681;-67
2023/02/08 01:56:05;;;;;;;65.03;30.17;;;;;;;3.16;53.19;103886.25;5007525;27;98982;-68
2023/02/08 01:58:36;;;;;;;68.95;32.50;;;;;;;3.07;53.48;103892.78;5030641;27;96785;-66
2023/02/08 02:01:05;;;;;;;68.13;31.88;;;;;;;3.19;53.59;103888.09;5023754;27;98546;-67
2023/02/08 02:03:31;;;;;;;74.95;33.83;;;;;;;3.29;53.20;103890.28;5023343;27;99323;-68
2023/02/08 02:06:03;;;;;;;73.85;34.85;;;;;;;3.12;53.39;103891.28;5023936;27;98436;-67
2023/02/08 02:08:30;;;;;;;69.80;31.98;;;;;;;3.05;53.56;103891.81;5026350;27;97356;-68
2023/02/08 02:10:57;;;;;;;70.45;33.25;;;;;;;3.35;53.01;103887.94;5030006;27;99669;-68
2023/02/08 02:13:25;;;;;;;66.43;33.30;;;;;;;3.21;53.18;103881.25;5014318;28;99195;-67
2023/02/08 02:15:52;;;;;;;70.90;32.20;;;;;;;3.26;53.11;103884.06;5025383;28;99147;-67
2023/02/08 02:18:24;;;;;;;74.25;32.08;;;;;;;3.22;52.96;103876.06;5020412;27;97045;-67
2023/02/08 02:21:14;;;;;;;67.00;31.02;;;;;;;3.20;53.59;103887.28;5020491;28;96940;-67
2023/02/08 02:24:05;;;;;;;65.68;30.60;;;;;;;3.36;53.14;103886.22;5016989;28;99456;-67
2023/02/08 02:27:08;;;;;;;68.80;31.58;;;;;;;3.22;53.53;103890.84;5022511;27;99216;-67
2023/02/08 02:30:11;;;;;;;62.45;29.33;;;;;;;3.41;52.62;103908.25;5012331;27;99026;-67
2023/02/08 02:32:47;;;;;;;67.65;30.27;;;;;;;3.19;53.36;103898.56;5024063;27;98708;-68
2023/02/08 02:35:21;;;;;;;62.97;29.88;;;;;;;3.20;53.75;103897.75;5028819;27;99081;-67
2023/02/08 02:37:56;;;;;;;65.05;29.85;;;;;;;3.26;53.52;103899.72;5025869;27;98277;-67
2023/02/08 02:40:34;;;;;;;62.63;29.70;;;;;;;3.20;53.50;103897.75;5026688;27;96816;-66
2023/02/08 02:46:00;;;;;;;58.17;28.60;;;;;;;2.94;54.39;103896.56;5024716;27;97122;-67
2023/02/08 02:48:34;;;;;;;61.70;28.00;;;;;;;3.24;52.99;103902.28;5017425;27;98929;-67
2023/02/08 02:51:08;;;;;;;58.40;27.92;;;;;;;2.98;53.25;103905.44;5019779;28;96854;-67
2023/02/08 02:53:42;;;;;;;53.10;25.70;;;;;;;3.04;52.96;103895.25;5017696;28;96808;-69
2023/02/08 02:56:15;;;;;;;56.33;26.15;;;;;;;3.26;52.26;103895.41;5020719;27;99147;-69
2023/02/08 02:58:44;;;;;;;50.72;25.02;;;;;;;3.28;52.28;103896.38;5023960;28;99340;-67
2023/02/08 03:01:10;;;;;;;57.00;25.20;;;;;;;3.36;51.79;103899.28;5024100;27;97817;-67
2023/02/08 03:03:39;;;;;;;55.85;25.63;;;;;;;3.22;52.34;103898.69;5034801;27;97548;-67
2023/02/08 03:06:10;;;;;;;52.83;24.60;;;;;;;3.27;52.15;103904.13;5026170;27;101385;-67
2023/02/08 03:09:03;;;;;;;52.38;24.67;;;;;;;3.30;51.84;103902.53;5029664;27;98814;-67
2023/02/08 03:11:33;;;;;;;54.60;24.88;;;;;;;3.30;51.81;103901.66;5019516;28;96836;-68
2023/02/08 03:14:13;;;;;;;54.15;26.23;;;;;;;3.05;52.46;103899.66;5025150;28;96891;-68
2023/02/08 03:16:58;;;;;;;50.38;24.27;;;;;;;3.08;52.29;103899.81;5018039;28;98092;-67
2023/02/08 03:19:35;;;;;;;56.25;24.13;;;;;;;3.08;52.12;103894.59;5021242;27;98813;-67
2023/02/08 03:22:06;;;;;;;50.97;24.40;;;;;;;2.97;52.31;103895.78;5029140;28;96908;-69
2023/02/08 03:24:41;;;;;;;49.83;23.13;;;;;;;2.87;52.35;103904.94;5031219;27;96824;-67
2023/02/08 03:27:16;;;;;;;53.88;24.05;;;;;;;2.88;52.61;103906.75;5028321;27;101358;-68
2023/02/08 03:29:52;;;;;;;50.13;23.20;;;;;;;2.71;52.30;103899.81;5031993;27;98886;-67
2023/02/08 03:32:23;;;;;;;49.33;23.80;;;;;;;2.97;51.73;103906.25;5023227;27;97473;-68
2023/02/08 03:34:57;;;;;;;48.10;23.90;;;;;;;2.70;52.55;103901.53;5014717;27;96885;-67
2023/02/08 03:37:29;;;;;;;50.45;23.20;;;;;;;2.64;52.44;103903.84;5025729;27;99577;-68
2023/02/08 03:40:02;;;;;;;48.80;23.45;;;;;;;2.84;51.91;103901.28;5027368;27;99181;-69
2023/02/08 03:42:32;;;;;;;46.83;22.70;;;;;;;2.88;52.35;103898.00;5029074;27;99000;-69
2023/02/08 03:45:02;;;;;;;53.90;24.77;;;;;;;2.86;52.52;103895.31;5028987;27;98251;-68
2023/02/08 03:47:32;;;;;;;48.38;23.23;;;;;;;2.74;52.21;103900.88;5029297;27;99413;-68
2023/02/08 03:50:04;;;;;;;50.40;23.15;;;;;;;2.90;51.64;103898.94;5027380;28;99364;-69
2023/02/08 03:52:32;;;;;;;50.55;22.85;;;;;;;2.66;52.01;103899.63;5017337;27;98717;-69
2023/02/08 03:55:03;;;;;;;43.72;22.58;;;;;;;2.95;51.65;103892.25;5027809;27;97418;-69
2023/02/08 03:57:34;;;;;;;48.22;23.40;;;;;;;2.81;51.64;103904.66;5033020;27;99268;-68
2023/02/08 04:00:07;;;;;;;52.63;22.90;;;;;;;3.01;51.13;103903.88;5029783;27;98845;-69
2023/02/08 04:02:39;;;;;;;47.28;21.45;;;;;;;3.08;51.08;103900.72;5034371;27;97216;-67
2023/02/08 04:05:07;;;;;;;52.70;23.05;;;;;;;2.87;51.82;103906.66;5022014;27;96971;-67
2023/02/08 04:07:34;;;;;;;46.85;21.05;;;;;;;3.16;50.93;103903.63;5024879;27;97689;-67
2023/02/08 04:10:01;;;;;;;47.30;21.05;;;;;;;3.01;50.97;103902.97;5025983;27;98867;-66
2023/02/08 04:12:28;;;;;;;47.78;21.73;;;;;;;2.88;51.07;103904.13;5021614;27;97230;-68
2023/02/08 04:14:54;;;;;;;45.22;22.20;;;;;;;3.09;50.82;103902.47;5034454;27;98957;-68
2023/02/08 04:17:21;;;;;;;41.08;20.33;;;;;;;2.83;51.02;103897.78;5023212;27;99265;-67
2023/02/08 04:19:47;;;;;;;46.60;22.40;;;;;;;3.20;50.42;103897.75;5024488;27;97464;-68
2023/02/08 04:22:15;;;;;;;50.65;22.52;;;;;;;2.99;50.93;103894.16;5022735;27;97103;-66
2023/02/08 04:24:42;;;;;;;42.45;20.92;;;;;;;2.84;51.31;103894.34;5032226;27;97102;-67
2023/02/08 04:27:08;;;;;;;46.70;21.02;;;;;;;2.94;51.62;103887.84;5024159;28;99924;-68
2023/02/08 04:29:35;;;;;;;47.33;22.65;;;;;;;3.02;50.81;103896.91;5032477;27;99036;-67
2023/02/08 04:32:02;;;;;;;44.67;20.85;;;;;;;2.94;51.23;103904.41;5030876;27;96948;-65
2023/02/08 04:34:29;;;;;;;44.75;21.02;;;;;;;3.10;50.63;103901.66;5031392;27;97368;-68
2023/02/08 04:36:55;;;;;;;42.22;20.58;;;;;;;2.94;50.95;103900.91;5020568;27;99017;-69
2023/02/08 04:39:23;;;;;;;44.35;21.67;;;;;;;3.08;50.93;103897.19;5022316;27;99058;-68
2023/02/08 04:41:50;;;;;;;49.08;21.98;;;;;;;3.15;50.59;103901.88;5023163;27;96877;-68
2023/02/08 04:44:17;;;;;;;45.97;21.70;;;;;;;2.80;51.29;103898.53;5028493;27;99080;-66
2023/02/08 04:47:21;;;;;;;43.75;20.90;;;;;;;2.86;51.39;103886.59;5030080;27;99685;-68
2023/02/08 04:49:48;;;;;;;45.55;21.40;;;;;;;3.12;50.75;103897.41;5021723;28;99120;-67
2023/02/08 04:52:14;;;;;;;49.60;21.75;;;;;;;2.75;51.39;103893.94;5029102;27;97336;-67
2023/02/08 04:54:42;;;;;;;44.83;21.35;;;;;;;2.91;51.22;103898.13;5018911;27;98419;-67
2023/02/08 04:57:09;;;;;;;42.67;19.90;;;;;;;2.73;51.74;103896.47;5025695;27;99205;-66
2023/02/08 04:59:36;;;;;;;41.42;20.40;;;;;;;2.83;51.75;103896.88;5030936;27;100769;-67
2023/02/08 05:02:02;;;;;;;47.60;20.90;;;;;;;2.79;51.47;103896.75;5031905;27;96819;-67
2023/02/08 05:04:29;;;;;;;49.13;20.35;;;;;;;2.84;51.41;103902.19;5028270;28;97219;-67
2023/02/08 05:06:56;;;;;;;44.03;19.90;;;;;;;2.79;51.57;103899.38;5023447;27;99200;-67
2023/02/08 05:09:22;;;;;;;43.45;19.77;;;;;;;2.84;51.35;103898.66;5028391;27;99167;-68
2023/02/08 05:11:50;;;;;;;42.28;18.90;;;;;;;2.67;51.72;103900.50;5029193;27;97255;-68
2023/02/08 05:14:17;;;;;;;41.28;19.85;;;;;;;2.79;51.52;103904.59;5025818;27;96885;-68
2023/02/08 05:16:44;;;;;;;43.63;20.45;;;;;;;2.63;51.70;103899.44;5024283;27;101954;-68
2023/02/08 05:19:11;;;;;;;45.08;20.75;;;;;;;2.53;51.93;103899.84;5025147;28;99289;-68
2023/02/08 05:21:38;;;;;;;46.45;20.05;;;;;;;2.76;51.88;103893.97;5025203;28;97685;-67
2023/02/08 05:24:05;;;;;;;43.17;20.08;;;;;;;2.73;51.55;103903.41;5024987;28;96743;-69
2023/02/08 05:26:32;;;;;;;42.85;19.25;;;;;;;2.88;50.55;103905.84;5028209;27;98578;-68
2023/02/08 05:29:00;;;;;;;41.08;19.13;;;;;;;2.91;50.38;103901.63;5028821;27;98871;-68
2023/02/08 05:31:27;;;;;;;44.30;19.92;;;;;;;2.50;50.87;103899.69;5026274;27;97493;-67
2023/02/08 05:33:53;;;;;;;40.85;19.35;;;;;;;2.66;51.18;103904.84;5016270;27;96814;-67
2023/02/08 05:36:22;;;;;;;41.85;19.00;;;;;;;2.76;51.05;103903.53;5027458;27;99306;-68
2023/02/08 05:38:48;;;;;;;43.20;20.00;;;;;;;2.74;50.64;103906.09;5028786;27;98915;-67
2023/02/08 05:41:15;;;;;;;41.83;19.75;;;;;;;2.66;50.46;103911.78;5020416;27;96767;-69
2023/02/08 05:43:42;;;;;;;41.92;19.88;;;;;;;2.86;50.46;103913.59;5031275;27;97062;-68
2023/02/08 05:46:10;;;;;;;45.33;20.75;;;;;;;2.51;51.33;103908.44;5027959;27;99061;-68
2023/02/08 05:48:36;;;;;;;47.22;21.25;;;;;;;2.36;51.46;103919.06;5026108;27;100356;-67
2023/02/08 05:51:03;;;;;;;51.22;20.65;;;;;;;2.63;51.06;103922.06;5029603;27;98529;-68
2023/02/08 05:53:30;;;;;;;41.40;18.83;;;;;;;2.60;51.19;103920.22;5029178;27;96985;-68
2023/02/08 05:55:57;;;;;;;42.80;20.15;;;;;;;2.71;50.81;103920.72;5029202;27;100058;-67
2023/02/08 05:58:24;;;;;;;46.05;21.08;;;;;;;2.65;50.74;103917.81;5020379;28;99030;-68
2023/02/08 06:00:50;;;;;;;50.67;21.38;;;;;;;2.70;49.98;103919.81;5023101;27;97289;-68
2023/02/08 06:03:18;;;;;;;48.53;21.45;;;;;;;2.51;50.58;103914.53;5029985;27;96876;-68
2023/02/08 06:05:45;;;;;;;46.33;20.10;;;;;;;2.57;50.69;103919.16;5022137;27;98968;-70
2023/02/08 06:08:11;;;;;;;45.80;20.73;;;;;;;2.48;50.49;103921.34;5032375;27;98817;-69
2023/02/08 06:10:38;;;;;;;44.58;20.75;;;;;;;2.51;50.58;103919.75;5023461;27;98061;-69
2023/02/08 06:13:05;;;;;;;43.10;20.02;;;;;;;2.42;50.79;103929.78;5020674;27;97033;-68
2023/02/08 06:15:31;;;;;;;43.20;19.90;;;;;;;2.39;50.90;103929.63;5020083;27;98481;-68
2023/02/08 06:17:58;;;;;;;47.40;20.77;;;;;;;2.32;50.74;103931.03;5026201;27;99092;-67
2023/02/08 06:20:26;;;;;;;46.85;19.98;;;;;;;2.48;50.64;103934.41;5022425;27;99005;-68
2023/02/08 06:22:52;;;;;;;46.22;21.15;;;;;;;2.37;50.65;103941.69;5023877;27;97699;-67
2023/02/08 06:25:19;;;;;;;46.42;20.38;;;;;;;2.24;50.89;103934.97;5027834;27;97609;-68
2023/02/08 06:27:46;;;;;;;47.40;20.80;;;;;;;2.49;50.41;103937.09;5022508;28;100807;-71
2023/02/08 06:30:13;;;;;;;51.00;20.92;;;;;;;2.29;50.81;103943.06;5023289;28;96785;-68
2023/02/08 06:32:39;;;;;;;45.67;21.30;;;;;;;2.17;51.17;103943.31;5025317;27;97287;-67
2023/02/08 06:35:07;;;;;;;47.42;20.35;;;;;;;2.21;51.07;103939.16;5022011;28;97702;-67
2023/02/08 06:37:35;;;;;;;47.60;21.38;;;;;;;2.38;50.74;103946.09;5026273;27;97839;-68
2023/02/08 06:40:01;;;;;;;47.75;21.30;;;;;;;2.58;50.36;103937.50;5024131;28;97929;-67
2023/02/08 06:42:28;;;;;;;47.00;21.08;;;;;;;2.39;50.54;103938.34;5024602;27;96884;-69
2023/02/08 06:44:56;;;;;;;49.78;20.83;;;;;;;2.37;50.35;103949.53;5013967;27;99639;-69
2023/02/08 06:47:23;;;;;;;53.40;21.65;;;;;;;2.40;50.19;103944.47;5026367;27;99057;-68
2023/02/08 06:49:50;;;;;;;46.97;21.38;;;;;;;2.29;50.83;103948.28;5020240;27;96930;-71
2023/02/08 06:52:16;;;;;;;47.90;21.88;;;;;;;2.11;51.30;103947.34;5021725;27;97919;-72
2023/02/08 06:54:44;;;;;;;47.83;21.05;;;;;;;2.28;50.89;103946.47;5026897;27;99123;-71
2023/02/08 06:57:12;;;;;;;46.53;20.88;;;;;;;2.27;50.72;103955.13;5032661;27;98035;-71
2023/02/08 06:59:38;;;;;;;50.45;22.42;;;;;;;2.26;50.45;103950.72;5022222;28;97563;-73
2023/02/08 07:02:05;;;;;;;49.72;21.55;;;;;;;2.29;50.31;103946.56;5027015;27;97318;-71
2023/02/08 07:04:34;;;;;;;45.05;21.05;;;;;;;2.43;50.19;103954.16;5028265;27;97617;-69
2023/02/08 07:07:01;;;;;;;51.80;22.02;;;;;;;2.54;50.54;103947.75;5033815;27;98806;-68
2023/02/08 07:09:27;;;;;;;64.97;22.17;;;;;;;2.52;50.42;103945.06;5027549;27;97258;-69
2023/02/08 07:11:55;;;;;;;53.67;23.27;;;;;;;2.48;50.07;103945.75;5030508;27;97365;-69
2023/02/08 07:14:22;;;;;;;57.17;21.13;;;;;;;2.57;49.65;103943.56;5018849;28;100748;-67
2023/02/08 07:16:48;;;;;;;52.58;22.48;;;;;;;2.56;49.93;103946.97;5031978;27;99226;-68
2023/02/08 07:19:15;;;;;;;55.75;21.98;;;;;;;2.50;50.28;103944.06;5022608;27;99598;-69
2023/02/08 07:21:41;;;;;;;48.03;21.58;;;;;;;2.46;50.22;103942.16;5024448;27;96822;-68
2023/02/08 07:24:08;;;;;;;47.65;20.60;;;;;;;2.38;50.40;103943.47;5030608;27;99462;-68
2023/02/08 07:26:34;;;;;;;50.95;21.58;;;;;;;2.27;50.46;103940.38;5027298;27;98814;-69
2023/02/08 07:29:02;;;;;;;55.78;22.92;;;;;;;2.41;50.46;103941.03;5023629;27;97394;-67
2023/02/08 07:31:28;;;;;;;54.63;22.98;;;;;;;2.67;49.98;103943.19;5020746;27;96896;-69
2023/02/08 07:33:55;;;;;;;47.33;21.65;;;;;;;3.02;49.15;103946.56;5026785;27;99082;-69
2023/02/08 07:36:21;;;;;;;46.90;21.70;;;;;;;2.77;49.48;103944.50;5022488;28;100220;-67
2023/02/08 07:38:48;;;;;;;55.90;24.38;;;;;;;2.90;49.51;103945.97;5028264;28;97218;-69
2023/02/08 07:41:14;;;;;;;51.30;20.80;;;;;;;2.73;49.25;103943.47;5017027;27;96927;-67
2023/02/08 07:43:41;;;;;;;51.20;21.17;;;;;;;2.80;49.35;103956.00;5028429;27;103255;-67
2023/02/08 07:46:11;;;;;;;49.05;21.13;;;;;;;3.21;50.40;103962.25;5029099;27;99099;-70
2023/02/08 07:48:38;;;;;;;43.40;19.98;;;;;;;3.41;49.19;103957.94;5027051;27;96830;-69
2023/02/08 07:51:05;;;;;;;47.67;21.27;;;;;;;3.53;47.67;103967.22;5027721;27;98984;-68
2023/02/08 07:53:32;;;;;;;51.33;22.38;;;;;;;3.33;48.21;103969.75;5031987;27;97841;-69
2023/02/08 07:55:59;;;;;;;54.08;21.77;;;;;;;3.25;47.95;103972.00;5028826;27;99292;-68
2023/02/08 07:58:26;;;;;;;59.00;23.33;;;;;;;3.29;48.12;103971.31;5017595;27;97936;-68
2023/02/08 08:00:52;;;;;;;51.60;21.02;;;;;;;3.33;47.27;103977.59;5021835;27;98798;-68
2023/02/08 08:03:20;;;;;;;50.38;21.52;;;;;;;3.15;48.19;103969.81;5020562;27;99259;-68
2023/02/08 08:05:47;;;;;;;54.10;21.40;;;;;;;3.41;48.14;103973.63;5034000;27;99157;-68
2023/02/08 08:08:13;;;;;;;56.22;21.80;;;;;;;3.55;47.53;103981.22;5026565;28;97110;-67
2023/02/08 08:10:41;;;;;;;59.25;20.88;;;;;;;3.52;47.32;103980.22;5022784;27;96781;-70
2023/02/08 08:13:07;;;;;;;51.28;21.33;;;;;;;3.55;47.52;103978.63;5022426;28;98968;-67
2023/02/08 08:15:34;;;;;;;46.22;20.58;;;;;;;3.54;47.55;103982.03;5018800;27;99487;-67
2023/02/08 08:18:01;;;;;;;45.70;22.05;;;;;;;3.67;46.67;103983.53;5025741;27;96773;-67
2023/02/08 08:20:28;;;;;;;48.55;22.42;;;;;;;3.62;47.06;103985.00;5033636;27;96815;-70
2023/02/08 08:22:55;;;;;;;46.60;20.67;;;;;;;3.89;46.43;103987.94;5025834;28;97690;-69
2023/02/08 08:25:22;;;;;;;46.13;20.65;;;;;;;3.91;46.38;103997.66;5027328;27;97530;-69
2023/02/08 08:27:48;;;;;;;49.33;21.05;;;;;;;3.89;47.02;103987.94;5033574;27;96744;-68
2023/02/08 08:30:16;;;;;;;45.45;20.83;;;;;;;4.09;46.38;103989.69;5023985;27;96864;-69
2023/02/08 08:32:43;;;;;;;55.40;23.00;;;;;;;3.86;46.29;103990.44;5023991;27;98965;-75
2023/02/08 08:35:10;;;;;;;48.05;21.35;;;;;;;3.85;47.24;103993.88;5023542;27;98198;-73
2023/02/08 08:37:38;;;;;;;51.05;21.55;;;;;;;4.16;45.96;103989.13;5026868;27;96829;-73
2023/02/08 08:40:06;;;;;;;45.85;21.60;;;;;;;4.12;46.33;103978.47;5029568;27;97042;-76
2023/02/08 08:42:38;;;;;;;52.55;22.77;;;;;;;4.15;46.13;103976.88;5022723;27;99149;-74
2023/02/08 08:45:05;;;;;;;50.67;23.38;;;;;;;3.91;47.18;103973.22;5022316;27;98871;-73
2023/02/08 08:47:32;;;;;;;51.70;22.33;;;;;;;3.93;46.65;103971.56;5023284;27;96779;-72
2023/02/08 08:49:59;;;;;;;44.20;22.88;;;;;;;4.09;46.36;103958.28;5020428;27;97350;-71
2023/02/08 08:52:25;;;;;;;52.13;22.75;;;;;;;3.94;46.73;103968.09;5029704;27;99269;-75
2023/02/08 08:54:53;;;;;;;59.17;24.58;;;;;;;4.13;46.06;103960.22;5019270;28;98707;-73
2023/02/08 08:57:19;;;;;;;53.95;23.85;;;;;;;4.03;46.21;103968.50;5021857;27;98971;-73
2023/02/08 08:59:46;;;;;;;52.03;22.50;;;;;;;3.77;47.21;103958.63;5023245;27;97076;-74
2023/02/08 09:02:14;;;;;;;56.33;23.77;;;;;;;4.11;46.62;103960.97;5021542;27;100453;-73
2023/02/08 09:04:41;;;;;;;52.75;24.08;;;;;;;4.13;46.32;103962.84;5024945;27;98816;-72
2023/02/08 09:07:08;;;;;;;41.75;19.58;;;;;;;3.92;46.29;103956.69;5020828;27;98098;-72
2023/02/08 09:09:35;;;;;;;59.88;24.10;;;;;;;3.82;46.58;103967.56;5025610;27;97418;-73
2023/02/08 09:12:03;;;;;;;53.80;24.77;;;;;;;3.95;46.41;103949.84;5027925;27;99570;-74
2023/02/08 09:14:30;;;;;;;57.42;25.42;;;;;;;4.05;46.09;103952.88;5024598;27;99016;-73
2023/02/08 09:16:56;;;;;;;60.20;24.85;;;;;;;4.41;46.01;103943.91;5020127;27;97084;-73
2023/02/08 09:19:23;;;;;;;57.08;24.48;;;;;;;4.60;44.94;103951.66;5023592;27;99120;-74
2023/02/08 09:21:49;;;;;;;61.38;24.33;;;;;;;4.67;45.13;103956.31;5030807;27;99167;-73
2023/02/08 09:24:17;;;;;;;48.35;22.83;;;;;;;4.78;44.60;103954.13;5022205;27;98301;-73
2023/02/08 09:26:44;;;;;;;63.17;25.70;;;;;;;4.85;44.14;103956.16;5019785;28;98467;-73
2023/02/08 09:29:12;;;;;;;55.03;25.67;;;;;;;5.09;44.31;103949.22;5017643;27;99169;-73
2023/02/08 09:31:38;;;;;;;52.40;24.23;;;;;;;5.14;43.94;103966.03;5025926;27;99437;-73
2023/02/08 09:34:06;;;;;;;53.42;24.75;;;;;;;5.08;44.03;103962.28;5019604;27;98995;-73
2023/02/08 09:36:37;;;;;;;57.45;25.10;;;;;;;4.98;43.55;103962.78;5026376;27;97151;-73
2023/02/08 09:39:16;;;;;;;61.10;26.23;;;;;;;4.90;44.49;103970.34;5025281;27;97246;-74
2023/02/08 09:41:59;;;;;;;55.40;25.20;;;;;;;4.89;44.74;103962.41;5023664;27;99476;-74
2023/02/08 09:44:36;;;;;;;56.35;25.55;;;;;;;5.07;44.35;103960.47;5021172;27;98102;-73
2023/02/08 09:47:06;;;;;;;;;;;;;;;5.05;43.78;103960.44;5022495;27;96888;-73
2023/02/08 09:49:36;;;;;;;59.28;25.60;;;;;;;5.25;43.62;103966.41;5027124;27;97448;-74
2023/02/08 09:52:06;;;;;;;63.75;26.38;;;;;;;5.49;43.22;103959.47;5026250;27;98853;-74
2023/02/08 09:54:37;;;;;;;53.42;24.80;;;;;;;5.58;43.14;103958.88;5024523;27;97618;-74
2023/02/08 09:57:09;;;;;;;60.42;26.40;;;;;;;5.55;42.86;103956.16;5020504;27;98816;-69
2023/02/08 09:59:40;;;;;;;60.95;26.60;;;;;;;5.28;43.38;103952.53;5025234;27;96759;-70
2023/02/08 10:02:18;;;;;;;52.88;23.73;;;;;;;5.29;43.25;103942.13;5025528;27;100974;-69
2023/02/08 10:04:56;;;;;;;58.05;25.08;;;;;;;5.39;42.78;103938.97;5018511;27;99711;-68
2023/02/08 10:07:25;;;;;;;58.60;26.15;;;;;;;5.33;42.94;103930.00;5021904;27;97806;-69
2023/02/08 10:09:53;;;;;;;54.47;24.48;;;;;;;5.71;42.46;103924.38;5021501;27;97739;-68
2023/02/08 10:12:32;;;;;;;61.22;27.70;;;;;;;5.77;42.12;103922.00;5023409;27;98892;-69
2023/02/08 10:15:10;;;;;;;55.28;25.38;;;;;;;5.42;42.51;103919.84;5026737;27;98613;-69
2023/02/08 10:18:05;;;;;;;54.22;26.15;;;;;;;5.27;42.89;103916.66;5016724;27;97101;-69
2023/02/08 10:20:49;;;;;;;57.65;25.50;;;;;;;5.46;42.92;103913.84;5022068;28;96886;-68
2023/02/08 10:23:33;;;;;;;53.60;25.85;;;;;;;5.49;42.46;103899.16;5021580;27;100047;-68
2023/02/08 10:26:13;;;;;;;60.13;26.55;;;;;;;5.80;42.87;103902.81;5019989;27;99147;-69
2023/02/08 10:28:57;;;;;;;56.35;26.08;;;;;;;6.09;42.04;103890.72;5015465;27;96920;-68
2023/02/08 10:31:40;;;;;;;54.88;26.73;;;;;;;5.44;42.23;103907.69;5022141;27;97229;-68
2023/02/08 10:34:30;;;;;;;54.28;25.42;;;;;;;5.97;41.68;103888.59;5022773;27;98945;-71
2023/02/08 10:36:56;;;;;;;61.42;25.40;;;;;;;5.85;41.71;103896.00;5026372;27;99029;-71
2023/02/08 10:39:27;;;;;;;59.80;27.13;;;;;;;5.46;42.47;103895.50;5028787;27;97225;-69
2023/02/08 10:41:53;;;;;;;55.22;24.63;;;;;;;5.49;42.35;103879.88;5021008;27;97194;-70
2023/02/08 10:44:28;;;;;;;74.65;26.48;;;;;;;5.49;42.39;103874.63;5026351;27;98928;-68
2023/02/08 10:47:09;;;;;;;50.75;24.15;;;;;;;5.66;42.39;103880.47;5026709;27;98791;-69
2023/02/08 10:49:44;;;;;;;56.80;24.63;;;;;;;5.62;41.62;103876.84;5026534;27;96838;-70
2023/02/08 10:52:10;;;;;;;54.90;26.00;;;;;;;5.77;41.72;103889.63;5022498;27;97187;-70
2023/02/08 10:54:37;;;;;;;51.92;24.95;;;;;;;5.54;41.82;103883.56;5027896;27;98866;-70
2023/02/08 10:57:11;;;;;;;52.80;23.70;;;;;;;5.76;41.85;103875.59;5019297;27;97957;-70
2023/02/08 10:59:50;;;;;;;59.50;24.55;;;;;;;5.79;41.07;103875.69;5025885;27;97610;-69
2023/02/08 11:02:25;;;;;;;61.17;25.05;;;;;;;5.96;41.50;103868.44;5026586;27;97006;-69
2023/02/08 11:05:00;;;;;;;48.03;23.07;;;;;;;5.84;41.34;103863.59;5027105;27;97806;-68
2023/02/08 11:07:26;;;;;;;57.65;25.40;;;;;;;5.75;41.62;103860.69;5019189;27;98815;-70
2023/02/08 11:09:53;;;;;;;56.88;25.13;;;;;;;5.97;41.64;103849.22;5025668;27;96798;-70
2023/02/08 11:12:22;;;;;;;56.03;25.45;;;;;;;5.91;41.85;103849.88;5025691;27;96900;-70
2023/02/08 11:14:51;;;;;;;51.38;24.33;;;;;;;5.93;41.57;103850.81;5030669;28;101940;-69
2023/02/08 11:17:26;;;;;;;51.28;26.15;;;;;;;6.01;41.36;103848.47;5026053;27;97924;-69
2023/02/08 11:19:53;;;;;;;56.85;25.45;;;;;;;6.21;41.77;103852.63;5026479;27;97130;-68
2023/02/08 11:22:21;;;;;;;55.50;24.00;;;;;;;6.29;41.24;103856.38;5025752;27;97239;-70
2023/02/08 11:24:56;;;;;;;53.15;24.23;;;;;;;6.23;40.82;103855.28;5028463;27;99184;-69
2023/02/08 11:27:32;;;;;;;53.20;24.88;;;;;;;5.66;41.55;103860.38;5024570;27;99357;-70
2023/02/08 11:30:18;;;;;;;51.00;24.52;;;;;;;5.81;41.50;103860.00;5020998;27;96770;-69